sensor_id;sensor_type;location;lat;lon;timestamp;pressure;altitude;pressure_sealevel;temperature;humidity
41596;BME280;27283;52.504;13.358;2023-04-28T00:02:15;101573.66;;;5.41;58.76
41596;BME280;27283;52.504;13.358;2023-04-28T00:04:50;101576.31;;;5.41;58.91
41596;BME280;27283;52.504;13.358;2023-04-28T00:07:23;101577.38;;;5.38;58.55
41596;BME280;27283;52.504;13.358;2023-04-28T00:09:55;101574.00;;;5.36;58.50
41596;BME280;27283;52.504;13.358;2023-04-28T00:12:28;101573.34;;;5.32;58.03
41596;BME280;27283;52.504;13.358;2023-04-28T00:15:00;101566.56;;;5.53;57.52
41596;BME280;27283;52.504;13.358;2023-04-28T00:17:33;101579.16;;;5.50;57.85
41596;BME280;27283;52.504;13.358;2023-04-28T00:20:09;101570.69;;;5.57;56.87
41596;BME280;27283;52.504;13.358;2023-04-28T00:22:42;101558.56;;;5.53;57.14
41596;BME280;27283;52.504;13.358;2023-04-28T00:25:14;101559.53;;;5.52;57.16
41596;BME280;27283;52.504;13.358;2023-04-28T00:27:47;101558.88;;;5.48;58.11
41596;BME280;27283;52.504;13.358;2023-04-28T00:30:19;101561.25;;;5.53;56.45
41596;BME280;27283;52.504;13.358;2023-04-28T00:32:54;101561.97;;;5.55;56.41
41596;BME280;27283;52.504;13.358;2023-04-28T00:35:29;101563.94;;;5.64;56.17
41596;BME280;27283;52.504;13.358;2023-04-28T00:38:02;101561.13;;;5.54;56.49
41596;BME280;27283;52.504;13.358;2023-04-28T00:40:34;101558.22;;;5.57;56.07
41596;BME280;27283;52.504;13.358;2023-04-28T00:43:07;101552.31;;;5.65;56.11
41596;BME280;27283;52.504;13.358;2023-04-28T00:45:39;101551.06;;;5.58;57.05
41596;BME280;27283;52.504;13.358;2023-04-28T00:48:13;101554.81;;;5.55;56.82
41596;BME280;27283;52.504;13.358;2023-04-28T00:50:48;101552.78;;;5.59;56.56
41596;BME280;27283;52.504;13.358;2023-04-28T00:53:20;101545.72;;;5.58;56.65
41596;BME280;27283;52.504;13.358;2023-04-28T00:56:07;101545.13;;;5.54;57.50
41596;BME280;27283;52.504;13.358;2023-04-28T00:58:43;101544.44;;;5.63;56.43
41596;BME280;27283;52.504;13.358;2023-04-28T01:01:23;101541.34;;;5.57;57.33
41596;BME280;27283;52.504;13.358;2023-04-28T01:03:58;101541.25;;;5.58;56.60
41596;BME280;27283;52.504;13.358;2023-04-28T01:06:36;101537.38;;;5.62;56.93
41596;BME280;27283;52.504;13.358;2023-04-28T01:09:14;101536.56;;;5.73;56.03
41596;BME280;27283;52.504;13.358;2023-04-28T01:11:49;101539.78;;;5.78;55.86
41596;BME280;27283;52.504;13.358;2023-04-28T01:14:21;101529.88;;;5.67;56.64
41596;BME280;27283;52.504;13.358;2023-04-28T01:16:54;101531.59;;;5.68;56.26
41596;BME280;27283;52.504;13.358;2023-04-28T01:19:27;101529.53;;;5.72;55.85
41596;BME280;27283;52.504;13.358;2023-04-28T01:22:02;101529.22;;;5.77;55.78
41596;BME280;27283;52.504;13.358;2023-04-28T01:24:40;101525.66;;;5.76;56.09
41596;BME280;27283;52.504;13.358;2023-04-28T01:27:13;101522.84;;;5.66;55.81
41596;BME280;27283;52.504;13.358;2023-04-28T01:29:45;101523.75;;;5.78;55.71
41596;BME280;27283;52.504;13.358;2023-04-28T01:32:18;101520.09;;;5.79;55.88
41596;BME280;27283;52.504;13.358;2023-04-28T01:34:50;101520.69;;;5.72;56.29
41596;BME280;27283;52.504;13.358;2023-04-28T01:37:22;101512.19;;;5.66;58.17
41596;BME280;27283;52.504;13.358;2023-04-28T01:39:59;101516.94;;;5.74;56.37
41596;BME280;27283;52.504;13.358;2023-04-28T01:42:31;101505.81;;;5.80;56.39
41596;BME280;27283;52.504;13.358;2023-04-28T01:45:08;101506.38;;;5.73;57.04
41596;BME280;27283;52.504;13.358;2023-04-28T01:47:40;101503.38;;;5.77;56.34
41596;BME280;27283;52.504;13.358;2023-04-28T01:50:13;101510.41;;;5.78;56.78
41596;BME280;27283;52.504;13.358;2023-04-28T01:52:47;101507.84;;;5.77;57.56
41596;BME280;27283;52.504;13.358;2023-04-28T01:55:23;101501.19;;;5.82;57.20
41596;BME280;27283;52.504;13.358;2023-04-28T01:57:56;101500.94;;;5.85;57.29
41596;BME280;27283;52.504;13.358;2023-04-28T02:00:29;101499.53;;;5.93;57.51
41596;BME280;27283;52.504;13.358;2023-04-28T02:03:02;101503.03;;;5.93;57.31
41596;BME280;27283;52.504;13.358;2023-04-28T02:05:35;101496.63;;;5.96;57.23
41596;BME280;27283;52.504;13.358;2023-04-28T02:08:08;101495.25;;;5.90;57.89
41596;BME280;27283;52.504;13.358;2023-04-28T02:10:44;101496.00;;;5.92;57.96
41596;BME280;27283;52.504;13.358;2023-04-28T02:13:19;101500.47;;;5.92;58.64
41596;BME280;27283;52.504;13.358;2023-04-28T02:15:53;101499.63;;;5.91;58.55
41596;BME280;27283;52.504;13.358;2023-04-28T02:18:25;101500.47;;;5.92;59.00
41596;BME280;27283;52.504;13.358;2023-04-28T02:21:06;101499.63;;;5.91;58.90
41596;BME280;27283;52.504;13.358;2023-04-28T02:23:41;101495.38;;;5.89;59.27
41596;BME280;27283;52.504;13.358;2023-04-28T02:26:16;101495.84;;;5.82;59.52
41596;BME280;27283;52.504;13.358;2023-04-28T02:28:51;101493.69;;;5.88;59.24
41596;BME280;27283;52.504;13.358;2023-04-28T02:31:23;101486.88;;;5.83;59.48
41596;BME280;27283;52.504;13.358;2023-04-28T02:33:56;101485.41;;;5.79;59.88
41596;BME280;27283;52.504;13.358;2023-04-28T02:36:29;101486.16;;;5.81;60.05
41596;BME280;27283;52.504;13.358;2023-04-28T02:39:01;101488.72;;;5.83;60.35
41596;BME280;27283;52.504;13.358;2023-04-28T02:41:36;101487.34;;;5.77;60.77
41596;BME280;27283;52.504;13.358;2023-04-28T02:44:11;101484.28;;;5.71;61.18
41596;BME280;27283;52.504;13.358;2023-04-28T02:46:44;101475.19;;;5.73;61.32
41596;BME280;27283;52.504;13.358;2023-04-28T02:49:17;101483.31;;;5.72;61.32
41596;BME280;27283;52.504;13.358;2023-04-28T02:51:49;101474.94;;;5.65;62.00
41596;BME280;27283;52.504;13.358;2023-04-28T02:54:21;101474.19;;;5.63;62.14
41596;BME280;27283;52.504;13.358;2023-04-28T02:57:03;101474.81;;;5.66;62.23
41596;BME280;27283;52.504;13.358;2023-04-28T02:59:36;101472.28;;;5.65;62.20
41596;BME280;27283;52.504;13.358;2023-04-28T03:02:17;101476.50;;;5.67;62.45
41596;BME280;27283;52.504;13.358;2023-04-28T03:04:51;101469.72;;;5.63;63.03
41596;BME280;27283;52.504;13.358;2023-04-28T03:07:26;101469.03;;;5.73;62.76
41596;BME280;27283;52.504;13.358;2023-04-28T03:09:59;101472.53;;;5.73;62.90
41596;BME280;27283;52.504;13.358;2023-04-28T03:12:35;101472.88;;;5.68;62.99
41596;BME280;27283;52.504;13.358;2023-04-28T03:15:08;101470.44;;;5.65;63.42
41596;BME280;27283;52.504;13.358;2023-04-28T03:17:42;101465.94;;;5.66;63.38
41596;BME280;27283;52.504;13.358;2023-04-28T03:20:17;101457.34;;;5.62;63.49
41596;BME280;27283;52.504;13.358;2023-04-28T03:22:50;101460.34;;;5.58;63.93
41596;BME280;27283;52.504;13.358;2023-04-28T03:25:25;101459.53;;;5.57;63.80
41596;BME280;27283;52.504;13.358;2023-04-28T03:28:00;101464.56;;;5.49;64.12
41596;BME280;27283;52.504;13.358;2023-04-28T03:30:33;101448.84;;;5.57;64.15
41596;BME280;27283;52.504;13.358;2023-04-28T03:33:05;101449.09;;;5.54;64.28
41596;BME280;27283;52.504;13.358;2023-04-28T03:35:38;101446.41;;;5.54;64.08
41596;BME280;27283;52.504;13.358;2023-04-28T03:38:11;101451.41;;;5.59;63.80
41596;BME280;27283;52.504;13.358;2023-04-28T03:40:44;101456.28;;;5.65;63.44
41596;BME280;27283;52.504;13.358;2023-04-28T03:43:19;101450.22;;;5.74;63.18
41596;BME280;27283;52.504;13.358;2023-04-28T03:45:52;101450.72;;;5.79;62.90
41596;BME280;27283;52.504;13.358;2023-04-28T03:48:25;101450.25;;;5.85;62.56
41596;BME280;27283;52.504;13.358;2023-04-28T03:50:57;101448.81;;;5.93;62.57
41596;BME280;27283;52.504;13.358;2023-04-28T03:53:33;101436.97;;;5.97;62.07
41596;BME280;27283;52.504;13.358;2023-04-28T03:56:06;101449.16;;;5.88;62.26
41596;BME280;27283;52.504;13.358;2023-04-28T03:58:41;101440.41;;;5.75;62.79
41596;BME280;27283;52.504;13.358;2023-04-28T04:01:13;101444.66;;;5.77;62.77
41596;BME280;27283;52.504;13.358;2023-04-28T04:03:46;101436.66;;;5.77;62.58
41596;BME280;27283;52.504;13.358;2023-04-28T04:06:20;101441.63;;;5.82;62.41
41596;BME280;27283;52.504;13.358;2023-04-28T04:08:53;101439.69;;;5.84;62.20
41596;BME280;27283;52.504;13.358;2023-04-28T04:11:26;101431.44;;;5.87;62.50
41596;BME280;27283;52.504;13.358;2023-04-28T04:14:01;101426.84;;;5.89;62.33
41596;BME280;27283;52.504;13.358;2023-04-28T04:16:35;101439.16;;;6.03;61.87
41596;BME280;27283;52.504;13.358;2023-04-28T04:19:08;101430.53;;;5.99;61.67
41596;BME280;27283;52.504;13.358;2023-04-28T04:21:40;101436.84;;;5.98;61.91
41596;BME280;27283;52.504;13.358;2023-04-28T04:24:13;101427.88;;;6.11;62.02
41596;BME280;27283;52.504;13.358;2023-04-28T04:26:46;101426.91;;;6.12;61.65
41596;BME280;27283;52.504;13.358;2023-04-28T04:29:21;101429.56;;;6.23;61.45
41596;BME280;27283;52.504;13.358;2023-04-28T04:31:54;101433.00;;;6.25;61.00
41596;BME280;27283;52.504;13.358;2023-04-28T04:34:26;101418.16;;;6.21;61.42
41596;BME280;27283;52.504;13.358;2023-04-28T04:36:59;101418.16;;;6.21;61.00
41596;BME280;27283;52.504;13.358;2023-04-28T04:39:31;101423.28;;;6.24;61.34
41596;BME280;27283;52.504;13.358;2023-04-28T04:42:05;101415.38;;;6.23;61.30
41596;BME280;27283;52.504;13.358;2023-04-28T04:44:55;101415.72;;;6.29;60.99
41596;BME280;27283;52.504;13.358;2023-04-28T04:47:28;101422.41;;;6.35;60.77
41596;BME280;27283;52.504;13.358;2023-04-28T04:50:01;101414.53;;;6.33;60.85
41596;BME280;27283;52.504;13.358;2023-04-28T04:52:34;101408.69;;;6.39;60.85
41596;BME280;27283;52.504;13.358;2023-04-28T04:55:07;101420.09;;;6.30;60.52
41596;BME280;27283;52.504;13.358;2023-04-28T04:57:41;101420.13;;;6.42;60.36
41596;BME280;27283;52.504;13.358;2023-04-28T05:00:17;101408.06;;;6.47;60.38
41596;BME280;27283;52.504;13.358;2023-04-28T05:02:50;101415.72;;;6.52;59.80
41596;BME280;27283;52.504;13.358;2023-04-28T05:05:22;101410.88;;;6.57;59.73
41596;BME280;27283;52.504;13.358;2023-04-28T05:07:57;101400.16;;;6.68;59.51
41596;BME280;27283;52.504;13.358;2023-04-28T05:10:30;101403.53;;;6.82;59.07
41596;BME280;27283;52.504;13.358;2023-04-28T05:13:03;101407.16;;;6.92;58.89
41596;BME280;27283;52.504;13.358;2023-04-28T05:15:40;101400.31;;;6.99;58.42
41596;BME280;27283;52.504;13.358;2023-04-28T05:18:12;101400.28;;;7.10;57.84
41596;BME280;27283;52.504;13.358;2023-04-28T05:20:45;101404.53;;;7.13;58.21
41596;BME280;27283;52.504;13.358;2023-04-28T05:23:17;101392.09;;;7.23;57.32
41596;BME280;27283;52.504;13.358;2023-04-28T05:25:49;101392.63;;;7.38;57.08
41596;BME280;27283;52.504;13.358;2023-04-28T05:28:21;101398.75;;;7.50;56.32
41596;BME280;27283;52.504;13.358;2023-04-28T05:30:56;101389.09;;;7.59;55.81
41596;BME280;27283;52.504;13.358;2023-04-28T05:33:28;101387.91;;;7.73;55.30
41596;BME280;27283;52.504;13.358;2023-04-28T05:36:01;101377.28;;;7.83;55.23
41596;BME280;27283;52.504;13.358;2023-04-28T05:38:33;101384.09;;;7.96;54.02
41596;BME280;27283;52.504;13.358;2023-04-28T05:41:06;101387.41;;;8.10;53.69
41596;BME280;27283;52.504;13.358;2023-04-28T05:43:38;101376.59;;;8.21;53.49
41596;BME280;27283;52.504;13.358;2023-04-28T05:46:13;101380.47;;;8.38;53.59
41596;BME280;27283;52.504;13.358;2023-04-28T05:49:01;101380.22;;;8.41;53.56
41596;BME280;27283;52.504;13.358;2023-04-28T05:51:33;101370.69;;;8.68;52.32
41596;BME280;27283;52.504;13.358;2023-04-28T05:54:06;101368.06;;;8.97;51.49
41596;BME280;27283;52.504;13.358;2023-04-28T05:56:41;101360.97;;;9.55;49.76
41596;BME280;27283;52.504;13.358;2023-04-28T05:59:13;101359.97;;;10.41;47.35
41596;BME280;27283;52.504;13.358;2023-04-28T06:01:49;101357.34;;;11.31;45.58
41596;BME280;27283;52.504;13.358;2023-04-28T06:04:24;101365.78;;;12.41;42.86
41596;BME280;27283;52.504;13.358;2023-04-28T06:06:57;101363.75;;;13.10;40.64
41596;BME280;27283;52.504;13.358;2023-04-28T06:09:29;101363.09;;;13.41;39.83
41596;BME280;27283;52.504;13.358;2023-04-28T06:12:05;101356.31;;;13.29;40.35
41596;BME280;27283;52.504;13.358;2023-04-28T06:14:38;101352.56;;;13.79;39.17
41596;BME280;27283;52.504;13.358;2023-04-28T06:17:13;101342.84;;;14.18;38.38
41596;BME280;27283;52.504;13.358;2023-04-28T06:19:44;101339.78;;;14.61;37.14
41596;BME280;27283;52.504;13.358;2023-04-28T06:22:19;101354.00;;;14.54;36.72
41596;BME280;27283;52.504;13.358;2023-04-28T06:24:51;101344.59;;;14.42;36.98
41596;BME280;27283;52.504;13.358;2023-04-28T06:27:23;101347.44;;;14.80;35.73
41596;BME280;27283;52.504;13.358;2023-04-28T06:29:55;101337.94;;;14.84;35.86
41596;BME280;27283;52.504;13.358;2023-04-28T06:32:31;101332.63;;;14.68;36.18
41596;BME280;27283;52.504;13.358;2023-04-28T06:35:06;101324.88;;;14.88;36.32
41596;BME280;27283;52.504;13.358;2023-04-28T06:37:38;101320.88;;;14.44;36.12
41596;BME280;27283;52.504;13.358;2023-04-28T06:40:11;101326.09;;;14.14;36.41
41596;BME280;27283;52.504;13.358;2023-04-28T06:42:43;101333.94;;;14.01;37.21
41596;BME280;27283;52.504;13.358;2023-04-28T06:45:15;101330.84;;;14.12;37.25
41596;BME280;27283;52.504;13.358;2023-04-28T06:47:50;101333.09;;;14.00;37.13
41596;BME280;27283;52.504;13.358;2023-04-28T06:50:23;101326.78;;;14.08;37.64
41596;BME280;27283;52.504;13.358;2023-04-28T06:53:00;101311.81;;;13.97;37.58
41596;BME280;27283;52.504;13.358;2023-04-28T06:55:32;101318.34;;;13.63;37.42
41596;BME280;27283;52.504;13.358;2023-04-28T06:58:05;101309.53;;;13.28;38.07
41596;BME280;27283;52.504;13.358;2023-04-28T07:00:37;101301.63;;;13.02;38.54
41596;BME280;27283;52.504;13.358;2023-04-28T07:03:12;101313.09;;;13.21;38.41
41596;BME280;27283;52.504;13.358;2023-04-28T07:05:45;101305.50;;;13.49;37.21
41596;BME280;27283;52.504;13.358;2023-04-28T07:08:17;101304.56;;;13.98;36.54
41596;BME280;27283;52.504;13.358;2023-04-28T07:10:51;101307.09;;;13.91;36.20
41596;BME280;27283;52.504;13.358;2023-04-28T07:13:23;101300.56;;;14.17;35.44
41596;BME280;27283;52.504;13.358;2023-04-28T07:15:56;101302.50;;;15.17;34.79
41596;BME280;27283;52.504;13.358;2023-04-28T07:18:31;101301.38;;;15.27;33.74
41596;BME280;27283;52.504;13.358;2023-04-28T07:21:04;101295.09;;;15.64;32.72
41596;BME280;27283;52.504;13.358;2023-04-28T07:23:37;101293.72;;;15.83;32.43
41596;BME280;27283;52.504;13.358;2023-04-28T07:26:11;101284.81;;;16.04;33.08
41596;BME280;27283;52.504;13.358;2023-04-28T07:28:44;101277.03;;;16.53;31.96
41596;BME280;27283;52.504;13.358;2023-04-28T07:31:16;101282.69;;;16.94;31.12
41596;BME280;27283;52.504;13.358;2023-04-28T07:33:59;101275.31;;;17.10;30.91
41596;BME280;27283;52.504;13.358;2023-04-28T07:36:33;101266.91;;;17.05;31.07
41596;BME280;27283;52.504;13.358;2023-04-28T07:39:08;101270.41;;;17.27;30.73
41596;BME280;27283;52.504;13.358;2023-04-28T07:41:40;101262.72;;;17.30;30.71
41596;BME280;27283;52.504;13.358;2023-04-28T07:44:13;101260.91;;;17.79;29.91
41596;BME280;27283;52.504;13.358;2023-04-28T07:46:45;101262.03;;;17.57;30.27
41596;BME280;27283;52.504;13.358;2023-04-28T07:49:22;101253.59;;;17.80;30.04
41596;BME280;27283;52.504;13.358;2023-04-28T07:51:54;101252.53;;;17.74;30.15
41596;BME280;27283;52.504;13.358;2023-04-28T07:54:27;101254.91;;;17.49;29.88
41596;BME280;27283;52.504;13.358;2023-04-28T07:56:59;101252.25;;;17.27;30.59
41596;BME280;27283;52.504;13.358;2023-04-28T07:59:34;101244.88;;;17.21;30.57
41596;BME280;27283;52.504;13.358;2023-04-28T08:02:09;101248.13;;;17.38;30.30
41596;BME280;27283;52.504;13.358;2023-04-28T08:04:46;101252.47;;;17.96;30.06
41596;BME280;27283;52.504;13.358;2023-04-28T08:07:24;101245.41;;;17.73;30.82
41596;BME280;27283;52.504;13.358;2023-04-28T08:09:56;101244.31;;;17.04;30.77
41596;BME280;27283;52.504;13.358;2023-04-28T08:12:29;101249.22;;;17.44;30.60
41596;BME280;27283;52.504;13.358;2023-04-28T08:15:01;101248.91;;;17.04;31.03
41596;BME280;27283;52.504;13.358;2023-04-28T08:17:33;101250.88;;;17.16;31.53
41596;BME280;27283;52.504;13.358;2023-04-28T08:20:11;101242.38;;;17.54;30.32
41596;BME280;27283;52.504;13.358;2023-04-28T08:22:50;101241.44;;;18.11;29.85
41596;BME280;27283;52.504;13.358;2023-04-28T08:25:22;101247.28;;;18.14;29.79
41596;BME280;27283;52.504;13.358;2023-04-28T08:27:56;101239.13;;;18.14;29.56
41596;BME280;27283;52.504;13.358;2023-04-28T08:30:28;101238.66;;;18.04;29.53
41596;BME280;27283;52.504;13.358;2023-04-28T08:33:04;101230.34;;;18.12;30.20
41596;BME280;27283;52.504;13.358;2023-04-28T08:35:40;101227.75;;;18.72;29.28
41596;BME280;27283;52.504;13.358;2023-04-28T08:38:12;101232.66;;;18.15;29.96
41596;BME280;27283;52.504;13.358;2023-04-28T08:40:46;101220.59;;;18.51;30.48
41596;BME280;27283;52.504;13.358;2023-04-28T08:43:18;101218.28;;;18.55;29.26
41596;BME280;27283;52.504;13.358;2023-04-28T08:45:52;101210.25;;;18.20;30.99
41596;BME280;27283;52.504;13.358;2023-04-28T08:48:25;101213.53;;;18.02;30.73
41596;BME280;27283;52.504;13.358;2023-04-28T08:51:01;101213.44;;;17.12;30.84
41596;BME280;27283;52.504;13.358;2023-04-28T08:53:37;101214.78;;;17.23;31.35
41596;BME280;27283;52.504;13.358;2023-04-28T08:56:32;101202.09;;;18.20;31.89
41596;BME280;27283;52.504;13.358;2023-04-28T08:59:05;101203.13;;;18.19;29.87
41596;BME280;27283;52.504;13.358;2023-04-28T09:01:38;101206.91;;;18.24;29.18
41596;BME280;27283;52.504;13.358;2023-04-28T09:04:15;101198.84;;;17.89;30.38
41596;BME280;27283;52.504;13.358;2023-04-28T09:06:52;101195.31;;;18.02;29.95
41596;BME280;27283;52.504;13.358;2023-04-28T09:09:25;101190.13;;;17.59;30.13
41596;BME280;27283;52.504;13.358;2023-04-28T09:12:04;101181.97;;;18.14;30.77
41596;BME280;27283;52.504;13.358;2023-04-28T09:14:57;101184.97;;;18.53;29.21
41596;BME280;27283;52.504;13.358;2023-04-28T09:17:47;101178.91;;;18.37;28.92
41596;BME280;27283;52.504;13.358;2023-04-28T09:20:20;101166.09;;;18.18;29.57
41596;BME280;27283;52.504;13.358;2023-04-28T09:23:24;101177.44;;;18.48;29.27
41596;BME280;27283;52.504;13.358;2023-04-28T09:26:01;101161.31;;;18.53;30.09
41596;BME280;27283;52.504;13.358;2023-04-28T09:28:35;101165.28;;;18.51;29.13
41596;BME280;27283;52.504;13.358;2023-04-28T09:31:21;101163.78;;;18.28;28.78
41596;BME280;27283;52.504;13.358;2023-04-28T09:34:02;101162.34;;;18.39;29.11
41596;BME280;27283;52.504;13.358;2023-04-28T09:36:47;101156.69;;;18.27;29.09
41596;BME280;27283;52.504;13.358;2023-04-28T09:39:32;101150.41;;;18.53;29.91
41596;BME280;27283;52.504;13.358;2023-04-28T09:42:05;101150.41;;;19.13;29.55
41596;BME280;27283;52.504;13.358;2023-04-28T09:44:40;101149.91;;;19.43;28.21
41596;BME280;27283;52.504;13.358;2023-04-28T09:47:24;101145.31;;;19.37;27.88
41596;BME280;27283;52.504;13.358;2023-04-28T09:50:02;101151.50;;;19.64;27.82
41596;BME280;27283;52.504;13.358;2023-04-28T09:52:35;101144.13;;;19.13;28.35
41596;BME280;27283;52.504;13.358;2023-04-28T09:55:12;101139.09;;;18.90;28.29
41596;BME280;27283;52.504;13.358;2023-04-28T09:57:48;101142.03;;;18.82;29.10
41596;BME280;27283;52.504;13.358;2023-04-28T10:00:22;101144.13;;;18.73;29.61
41596;BME280;27283;52.504;13.358;2023-04-28T10:02:58;101135.53;;;19.03;30.37
41596;BME280;27283;52.504;13.358;2023-04-28T10:05:32;101131.72;;;19.24;29.81
41596;BME280;27283;52.504;13.358;2023-04-28T10:08:05;101130.16;;;19.41;28.81
41596;BME280;27283;52.504;13.358;2023-04-28T10:10:42;101120.72;;;19.51;28.22
41596;BME280;27283;52.504;13.358;2023-04-28T10:13:17;101123.69;;;19.88;27.85
41596;BME280;27283;52.504;13.358;2023-04-28T10:15:51;101123.84;;;19.99;27.45
41596;BME280;27283;52.504;13.358;2023-04-28T10:18:27;101113.88;;;19.28;28.22
41596;BME280;27283;52.504;13.358;2023-04-28T10:21:02;101113.59;;;19.43;27.96
41596;BME280;27283;52.504;13.358;2023-04-28T10:27:01;101093.41;;;20.53;28.10
41596;BME280;27283;52.504;13.358;2023-04-28T10:29:35;101096.22;;;20.71;27.26
41596;BME280;27283;52.504;13.358;2023-04-28T10:32:19;101092.75;;;21.01;26.44
41596;BME280;27283;52.504;13.358;2023-04-28T10:38:11;101093.09;;;20.11;27.63
41596;BME280;27283;52.504;13.358;2023-04-28T10:40:57;101081.53;;;19.77;27.48
41596;BME280;27283;52.504;13.358;2023-04-28T10:43:36;101079.81;;;19.44;28.46
41596;BME280;27283;52.504;13.358;2023-04-28T10:46:10;101079.22;;;19.35;28.24
41596;BME280;27283;52.504;13.358;2023-04-28T10:49:01;101074.69;;;19.22;29.20
41596;BME280;27283;52.504;13.358;2023-04-28T10:51:34;101075.78;;;19.01;29.31
41596;BME280;27283;52.504;13.358;2023-04-28T10:54:16;101067.84;;;18.93;29.02
41596;BME280;27283;52.504;13.358;2023-04-28T10:57:16;101062.31;;;19.65;28.57
41596;BME280;27283;52.504;13.358;2023-04-28T11:00:28;101055.16;;;19.71;28.01
41596;BME280;27283;52.504;13.358;2023-04-28T11:03:01;101053.16;;;19.46;28.48
41596;BME280;27283;52.504;13.358;2023-04-28T11:05:35;101062.84;;;19.42;28.81
41596;BME280;27283;52.504;13.358;2023-04-28T11:08:34;101058.31;;;19.22;29.41
41596;BME280;27283;52.504;13.358;2023-04-28T11:14:32;101051.06;;;19.87;29.53
41596;BME280;27283;52.504;13.358;2023-04-28T11:17:09;101044.47;;;20.01;28.37
41596;BME280;27283;52.504;13.358;2023-04-28T11:19:45;101032.38;;;19.90;28.57
41596;BME280;27283;52.504;13.358;2023-04-28T11:22:21;101041.75;;;19.62;29.82
41596;BME280;27283;52.504;13.358;2023-04-28T11:24:54;101042.59;;;19.63;28.91
41596;BME280;27283;52.504;13.358;2023-04-28T11:27:32;101042.75;;;19.36;28.95
41596;BME280;27283;52.504;13.358;2023-04-28T11:30:19;101040.38;;;19.01;29.50
41596;BME280;27283;52.504;13.358;2023-04-28T11:32:56;101046.25;;;18.91;29.94
41596;BME280;27283;52.504;13.358;2023-04-28T11:35:41;101042.94;;;18.49;31.05
41596;BME280;27283;52.504;13.358;2023-04-28T11:38:17;101044.44;;;18.32;30.57
41596;BME280;27283;52.504;13.358;2023-04-28T11:40:59;101045.88;;;17.87;30.77
41596;BME280;27283;52.504;13.358;2023-04-28T11:43:32;101032.88;;;17.83;31.14
41596;BME280;27283;52.504;13.358;2023-04-28T11:46:19;101039.22;;;17.97;32.16
41596;BME280;27283;52.504;13.358;2023-04-28T11:49:04;101043.81;;;18.03;31.73
41596;BME280;27283;52.504;13.358;2023-04-28T11:51:38;101027.47;;;18.10;31.09
41596;BME280;27283;52.504;13.358;2023-04-28T11:54:16;101037.31;;;18.04;30.95
41596;BME280;27283;52.504;13.358;2023-04-28T11:56:52;101027.28;;;18.11;31.47
41596;BME280;27283;52.504;13.358;2023-04-28T11:59:26;101028.06;;;17.71;32.15
41596;BME280;27283;52.504;13.358;2023-04-28T12:02:01;101030.53;;;17.53;32.40
41596;BME280;27283;52.504;13.358;2023-04-28T12:04:39;101025.56;;;17.83;32.41
41596;BME280;27283;52.504;13.358;2023-04-28T12:07:14;101027.69;;;17.95;32.07
41596;BME280;27283;52.504;13.358;2023-04-28T12:10:12;101020.16;;;17.90;32.19
41596;BME280;27283;52.504;13.358;2023-04-28T12:12:45;101013.06;;;18.22;32.02
41596;BME280;27283;52.504;13.358;2023-04-28T12:15:21;101013.44;;;18.39;32.23
41596;BME280;27283;52.504;13.358;2023-04-28T12:17:53;101014.63;;;18.70;31.07
41596;BME280;27283;52.504;13.358;2023-04-28T12:20:38;101008.78;;;18.67;31.61
41596;BME280;27283;52.504;13.358;2023-04-28T12:23:11;101008.53;;;18.75;31.32
41596;BME280;27283;52.504;13.358;2023-04-28T12:25:45;100991.97;;;18.97;31.17
41596;BME280;27283;52.504;13.358;2023-04-28T12:28:17;101003.59;;;19.24;30.49
41596;BME280;27283;52.504;13.358;2023-04-28T12:31:01;100995.50;;;19.42;30.49
41596;BME280;27283;52.504;13.358;2023-04-28T12:33:35;100993.06;;;19.34;30.19
41596;BME280;27283;52.504;13.358;2023-04-28T12:36:11;100991.59;;;18.86;30.95
41596;BME280;27283;52.504;13.358;2023-04-28T12:38:48;100988.69;;;18.68;31.51
41596;BME280;27283;52.504;13.358;2023-04-28T12:41:21;100990.72;;;18.79;31.65
41596;BME280;27283;52.504;13.358;2023-04-28T12:43:55;100983.63;;;18.71;31.61
41596;BME280;27283;52.504;13.358;2023-04-28T12:46:31;100983.91;;;18.30;32.51
41596;BME280;27283;52.504;13.358;2023-04-28T12:49:03;100979.13;;;18.25;32.44
41596;BME280;27283;52.504;13.358;2023-04-28T12:51:39;100980.38;;;18.36;32.34
41596;BME280;27283;52.504;13.358;2023-04-28T12:54:11;100972.22;;;18.36;32.13
41596;BME280;27283;52.504;13.358;2023-04-28T12:56:44;100974.28;;;18.40;32.39
41596;BME280;27283;52.504;13.358;2023-04-28T12:59:19;100973.88;;;18.30;32.67
41596;BME280;27283;52.504;13.358;2023-04-28T13:01:52;100964.47;;;18.13;32.88
41596;BME280;27283;52.504;13.358;2023-04-28T13:04:25;100963.84;;;18.04;32.95
41596;BME280;27283;52.504;13.358;2023-04-28T13:07:04;100965.75;;;18.03;32.63
41596;BME280;27283;52.504;13.358;2023-04-28T13:09:39;100966.38;;;18.26;32.45
41596;BME280;27283;52.504;13.358;2023-04-28T13:12:13;100952.09;;;18.37;32.76
41596;BME280;27283;52.504;13.358;2023-04-28T13:14:48;100961.13;;;18.24;32.82
41596;BME280;27283;52.504;13.358;2023-04-28T13:17:21;100956.72;;;18.36;32.70
41596;BME280;27283;52.504;13.358;2023-04-28T13:19:53;100942.00;;;18.51;32.49
41596;BME280;27283;52.504;13.358;2023-04-28T13:22:29;100934.03;;;18.56;32.51
41596;BME280;27283;52.504;13.358;2023-04-28T13:25:02;100935.28;;;18.53;32.88
41596;BME280;27283;52.504;13.358;2023-04-28T13:27:34;100940.78;;;18.40;32.78
41596;BME280;27283;52.504;13.358;2023-04-28T13:30:14;100944.31;;;18.47;32.93
41596;BME280;27283;52.504;13.358;2023-04-28T13:32:47;100936.13;;;18.60;32.55
41596;BME280;27283;52.504;13.358;2023-04-28T13:35:20;100927.94;;;18.54;33.04
41596;BME280;27283;52.504;13.358;2023-04-28T13:37:55;100929.66;;;18.48;33.53